Delta, CO

6:37 AM MDT on August 04, 2015 (GMT -0600)
Garnet Mesa | | Change Station
CLOSE
Current Station
Personal Weather Station
Location: Delta, CO
Elevation: 5056 ft
Nearby Weather Stations

Elev 5056 ft 38.74 °N, 108.06 °W | Updated 24 seconds ago

Clear
Clear
57.2 °F
Feels Like 57.2 °F
N
0.0
Wind Variable Wind from SE
Gusts 0.0 mph

Today
High -- | Low -- °F
--% Chance of Precip.
Yesterday
High -- | Low -- °F
Precip. -- in
6:16 AM 8:19 PM
Waning Gibbous, 78% visible
Pressure 30.18 in
Visibility 10.0 miles
Clouds Clear
Dew Point 53 °F
Humidity 87%
Rainfall 0.00 in
Snow Depth Not available.
UV 0.0 out of 12
Pollen 7.10 out of 12
Air Quality Not available.
Flu Activity Not available.
METAR KAJZ 041215Z AUTO 08007KT 10SM RA CLR 16/11 A3018 RMK AO2 T01550107

More Conditions Fewer Conditions

Pressure 30.18 in
Visibility 10.0 miles
Clouds Clear
Dew Point 53 °F
Humidity 87%
Rainfall 0.00 in
Snow Depth Not available.
UV 0.0 out of 12
Pollen 7.10 out of 12
Air Quality Not available.
Flu Activity Not available.
METAR KAJZ 041215Z AUTO 08007KT 10SM RA CLR 16/11 A3018 RMK AO2 T01550107

More Conditions Fewer Conditions

10-Day Weather Forecast

×

Almanac

Astronomy

Aug. 04, 2015 Rise Set
Actual Time
Civil Twilight
Nautical Twilight
Astronomical Twilight
Moon
Length of Visible Light
Length of Day
Tomorrow will be .
, % of the Moon is Illuminated

Today's Extremes

State Highs State Lows

Community

WunderPhotos

Upload Photos

1,843,911 photos uploaded!

WunderBlogs® & News

Nearby

Air Quality

  Air Quality AQ Index Pollutant
Not available.

Snow Depth

Station Depth Elevation

Earthquake Activity

City Distance Mag. Time & Date
Minimum magnitude displayed is 2.5.

Coastal Water Temperatures

Place Temperature

Stations

Nearby Weather Stations

Station Location Temp. Windchill Dew Point Humidity Wind Precip. Elev Updated Type